createdAt,value
2023-03-25T00:01:01.562Z,11.34
2023-03-25T00:03:29.228Z,11.36
2023-03-25T00:05:56.341Z,11.35
2023-03-25T00:08:25.061Z,11.37
2023-03-25T00:10:52.465Z,11.39
2023-03-25T00:13:18.958Z,11.38
2023-03-25T00:15:48.651Z,11.38
2023-03-25T00:18:18.724Z,11.38
2023-03-25T00:20:46.024Z,11.36
2023-03-25T00:23:13.125Z,11.31
2023-03-25T00:25:39.573Z,11.26
2023-03-25T00:28:06.019Z,11.26
2023-03-25T00:30:32.504Z,11.26
2023-03-25T00:33:01.730Z,11.23
2023-03-25T00:35:29.158Z,11.21
2023-03-25T00:38:00.339Z,11.19
2023-03-25T00:40:28.520Z,11.14
2023-03-25T00:42:55.562Z,11.11
2023-03-25T00:45:22.277Z,11.07
2023-03-25T00:47:48.914Z,10.99
2023-03-25T00:50:15.422Z,10.95
2023-03-25T00:52:41.863Z,10.95
2023-03-25T00:55:08.594Z,10.94
2023-03-25T00:57:35.221Z,10.95
2023-03-25T01:00:01.957Z,10.96
2023-03-25T01:02:28.501Z,10.93
2023-03-25T01:04:55.125Z,10.90
2023-03-25T01:07:21.620Z,10.88
2023-03-25T01:09:48.838Z,10.88
2023-03-25T01:12:16.032Z,10.86
2023-03-25T01:14:43.167Z,10.84
2023-03-25T01:17:09.808Z,10.84
2023-03-25T01:19:36.534Z,10.81
2023-03-25T01:22:03.143Z,10.83
2023-03-25T01:24:29.656Z,10.83
2023-03-25T01:26:56.139Z,10.84
2023-03-25T01:29:22.651Z,10.83
2023-03-25T01:31:49.225Z,10.81
2023-03-25T01:34:16.083Z,10.83
2023-03-25T01:36:46.839Z,10.84
2023-03-25T01:39:16.720Z,10.80
2023-03-25T01:41:49.762Z,10.79
2023-03-25T01:44:20.680Z,10.76
2023-03-25T01:46:49.401Z,10.75
2023-03-25T01:49:23.768Z,10.72
2023-03-25T01:51:54.957Z,10.70
2023-03-25T01:54:21.505Z,10.69
2023-03-25T01:56:49.376Z,10.67
2023-03-25T01:59:18.209Z,10.63
2023-03-25T02:01:46.969Z,10.64
2023-03-25T02:04:15.031Z,10.66
2023-03-25T02:06:41.436Z,10.64
2023-03-25T02:09:09.218Z,10.52
2023-03-25T02:11:36.216Z,10.51
2023-03-25T02:14:04.686Z,10.54
2023-03-25T02:16:37.506Z,10.58
2023-03-25T02:19:10.691Z,10.55
2023-03-25T02:21:55.578Z,10.52
2023-03-25T02:24:25.842Z,10.54
2023-03-25T02:27:01.582Z,10.56
2023-03-25T02:29:49.496Z,10.55
2023-03-25T02:32:25.410Z,10.53
2023-03-25T02:35:04.139Z,10.56
2023-03-25T02:37:47.031Z,10.55
2023-03-25T02:40:19.415Z,10.54
2023-03-25T02:42:52.076Z,10.55
2023-03-25T02:45:32.753Z,10.53
2023-03-25T02:48:02.709Z,10.52
2023-03-25T02:50:33.278Z,10.53
2023-03-25T02:53:01.463Z,10.56
2023-03-25T02:55:30.599Z,10.58
2023-03-25T02:57:57.910Z,10.58
2023-03-25T03:00:26.802Z,10.60
2023-03-25T03:03:02.515Z,10.60
2023-03-25T03:05:31.269Z,10.58
2023-03-25T03:08:19.071Z,10.56
2023-03-25T03:10:45.657Z,10.53
2023-03-25T03:13:15.089Z,10.52
2023-03-25T03:15:46.646Z,10.52
2023-03-25T03:18:27.408Z,10.50
2023-03-25T03:21:16.606Z,10.49
2023-03-25T03:24:01.876Z,10.49
2023-03-25T03:26:44.601Z,10.48
2023-03-25T03:29:20.407Z,10.47
2023-03-25T03:32:05.964Z,10.48
2023-03-25T03:34:36.680Z,10.49
2023-03-25T03:37:04.363Z,10.49
2023-03-25T03:39:33.173Z,10.50
2023-03-25T03:42:02.221Z,10.48
2023-03-25T03:44:33.675Z,10.45
2023-03-25T03:47:05.113Z,10.41
2023-03-25T03:49:46.903Z,10.39
2023-03-25T03:52:17.220Z,10.40
2023-03-25T03:54:54.598Z,10.37
2023-03-25T03:57:27.068Z,10.37
2023-03-25T04:00:04.389Z,10.36
2023-03-25T04:02:35.859Z,10.36
2023-03-25T04:05:02.456Z,10.35
2023-03-25T04:07:41.625Z,10.30
2023-03-25T04:10:14.873Z,10.15
2023-03-25T04:12:43.709Z,10.16
2023-03-25T04:15:10.347Z,10.21
2023-03-25T04:17:36.880Z,10.24
2023-03-25T04:20:09.003Z,10.25
2023-03-25T04:22:37.857Z,10.27
2023-03-25T04:25:05.889Z,10.26
2023-03-25T04:27:32.789Z,10.27
2023-03-25T04:30:01.936Z,10.29
2023-03-25T04:32:28.530Z,10.31
2023-03-25T04:34:58.212Z,10.34
2023-03-25T04:37:27.824Z,10.34
2023-03-25T04:39:56.214Z,10.35
2023-03-25T04:42:25.833Z,10.34
2023-03-25T04:44:52.860Z,10.36
2023-03-25T04:47:21.274Z,10.35
2023-03-25T04:49:48.141Z,10.37
2023-03-25T04:52:14.703Z,10.31
2023-03-25T04:54:41.161Z,10.31
2023-03-25T04:57:10.784Z,10.33
2023-03-25T04:59:37.562Z,10.35
2023-03-25T05:02:05.850Z,10.36
2023-03-25T05:04:32.883Z,10.38
2023-03-25T05:06:59.575Z,10.36
2023-03-25T05:09:26.029Z,10.37
2023-03-25T05:11:53.354Z,10.34
2023-03-25T05:14:21.216Z,10.34
2023-03-25T05:16:48.115Z,10.34
2023-03-25T05:19:15.057Z,10.35
2023-03-25T05:21:42.417Z,10.31
2023-03-25T05:24:10.399Z,10.32
2023-03-25T05:26:37.729Z,10.34
2023-03-25T05:29:04.646Z,10.34
2023-03-25T05:31:31.119Z,10.33
2023-03-25T05:33:57.997Z,10.36
2023-03-25T05:36:27.382Z,10.37
2023-03-25T05:38:54.758Z,10.38
2023-03-25T05:41:22.862Z,10.39
2023-03-25T05:43:50.853Z,10.40
2023-03-25T05:46:18.646Z,10.40
2023-03-25T05:48:45.795Z,10.41
2023-03-25T05:51:15.656Z,10.39
2023-03-25T05:53:43.756Z,10.39
2023-03-25T05:56:11.327Z,10.40
2023-03-25T05:58:38.148Z,10.43
2023-03-25T06:01:04.790Z,10.43
2023-03-25T06:03:34.386Z,10.42
2023-03-25T06:06:01.727Z,10.42
2023-03-25T06:08:30.041Z,10.44
2023-03-25T06:10:59.173Z,10.42
2023-03-25T06:13:25.668Z,10.41
2023-03-25T06:15:56.253Z,10.43
2023-03-25T06:18:25.896Z,10.46
2023-03-25T06:20:54.124Z,10.47
2023-03-25T06:23:24.645Z,10.49
2023-03-25T06:25:51.522Z,10.50
2023-03-25T06:28:21.291Z,10.53
2023-03-25T06:30:48.410Z,10.55
2023-03-25T06:33:15.409Z,10.56
2023-03-25T06:36:01.858Z,10.57
2023-03-25T06:38:30.024Z,10.59
2023-03-25T06:40:57.034Z,10.61
2023-03-25T06:43:23.558Z,10.61
2023-03-25T06:45:53.039Z,10.60
2023-03-25T06:48:19.669Z,10.54
2023-03-25T06:50:46.200Z,10.46
2023-03-25T06:53:12.723Z,10.45
2023-03-25T06:55:39.349Z,10.44
2023-03-25T06:58:05.793Z,10.46
2023-03-25T07:00:32.359Z,10.48
2023-03-25T07:02:58.868Z,10.45
2023-03-25T07:05:25.498Z,10.39
2023-03-25T07:07:51.963Z,10.44
2023-03-25T07:10:18.687Z,10.44
2023-03-25T07:12:45.332Z,10.43
2023-03-25T07:15:11.796Z,10.47
2023-03-25T07:17:38.349Z,10.52
2023-03-25T07:20:05.656Z,10.58
2023-03-25T07:22:32.632Z,10.61
2023-03-25T07:24:59.319Z,10.62
2023-03-25T07:27:26.519Z,10.62
2023-03-25T07:29:53.028Z,10.64
2023-03-25T07:32:19.588Z,10.67
2023-03-25T07:34:46.064Z,10.69
2023-03-25T07:37:12.498Z,10.72
2023-03-25T07:39:38.902Z,10.75
2023-03-25T07:42:06.401Z,10.72
2023-03-25T07:44:33.024Z,10.67
2023-03-25T07:46:59.539Z,10.65
2023-03-25T07:49:26.292Z,10.59
2023-03-25T07:51:52.765Z,10.54
2023-03-25T07:54:22.309Z,10.44
2023-03-25T07:56:48.769Z,10.40
2023-03-25T07:59:15.342Z,10.39
2023-03-25T08:01:41.815Z,10.32
2023-03-25T08:04:08.346Z,10.23
2023-03-25T08:06:34.849Z,10.20
2023-03-25T08:09:01.509Z,10.17
2023-03-25T08:11:27.944Z,10.15
2023-03-25T08:13:54.376Z,10.10
2023-03-25T08:16:22.830Z,10.08
2023-03-25T08:18:52.833Z,10.12
2023-03-25T08:21:25.239Z,10.11
2023-03-25T08:23:54.868Z,10.09
2023-03-25T08:26:21.311Z,10.05
2023-03-25T08:28:48.063Z,10.06
2023-03-25T08:31:15.294Z,10.02
2023-03-25T08:33:42.904Z,10.03
2023-03-25T08:36:14.040Z,10.00
2023-03-25T08:38:41.650Z,10.00
2023-03-25T08:41:08.100Z,10.00
2023-03-25T08:43:34.561Z,9.94
2023-03-25T08:46:01.156Z,9.95
2023-03-25T08:48:27.631Z,9.96
2023-03-25T08:50:54.058Z,9.95
2023-03-25T08:53:20.644Z,9.99
2023-03-25T08:55:47.184Z,10.04
2023-03-25T08:58:13.693Z,10.12
2023-03-25T09:00:40.217Z,10.17
2023-03-25T09:03:07.173Z,10.25
2023-03-25T09:05:33.780Z,10.25
2023-03-25T09:08:00.872Z,10.25
2023-03-25T09:10:27.436Z,10.28
2023-03-25T09:12:53.963Z,10.29
2023-03-25T09:15:21.137Z,10.24
2023-03-25T09:17:47.653Z,10.27
2023-03-25T09:20:14.537Z,10.34
2023-03-25T09:22:41.367Z,10.38
2023-03-25T09:25:08.324Z,10.42
2023-03-25T09:27:35.379Z,10.45
2023-03-25T09:30:02.011Z,10.48
2023-03-25T09:32:28.512Z,10.49
2023-03-25T09:34:54.971Z,10.49
2023-03-25T09:37:21.460Z,10.52
2023-03-25T09:39:48.028Z,10.54
2023-03-25T09:42:32.898Z,10.56
2023-03-25T09:45:09.926Z,10.48
2023-03-25T09:47:39.304Z,10.43
2023-03-25T09:50:10.782Z,10.40
2023-03-25T09:52:51.124Z,10.51
2023-03-25T09:55:21.819Z,10.51
2023-03-25T09:57:50.674Z,10.45
2023-03-25T10:00:22.640Z,10.52
2023-03-25T10:02:57.702Z,10.59
2023-03-25T10:05:47.199Z,10.61
2023-03-25T10:08:24.849Z,10.74
2023-03-25T10:10:57.819Z,10.85
2023-03-25T10:13:24.255Z,10.89
2023-03-25T10:15:57.125Z,10.86
2023-03-25T10:18:29.752Z,10.94
2023-03-25T10:21:00.160Z,11.02
2023-03-25T10:23:33.389Z,11.06
2023-03-25T10:26:03.147Z,11.11
2023-03-25T10:28:36.956Z,11.04
2023-03-25T10:31:05.528Z,11.12
2023-03-25T10:33:31.926Z,11.07
2023-03-25T10:35:59.964Z,11.04
2023-03-25T10:38:26.434Z,10.98
2023-03-25T10:41:13.108Z,11.08
2023-03-25T10:43:41.786Z,11.20
2023-03-25T10:46:17.227Z,11.27
2023-03-25T10:48:45.223Z,11.34
2023-03-25T10:51:14.035Z,11.40
2023-03-25T10:53:41.533Z,11.45
2023-03-25T10:56:12.787Z,11.47
2023-03-25T10:58:40.090Z,11.53
2023-03-25T11:01:13.913Z,11.55
2023-03-25T11:03:41.982Z,11.59
2023-03-25T11:06:21.151Z,11.66
2023-03-25T11:09:18.507Z,11.81
2023-03-25T11:11:45.931Z,11.95
2023-03-25T11:14:12.706Z,12.05
2023-03-25T11:16:47.536Z,12.18
2023-03-25T11:19:21.079Z,12.28
2023-03-25T11:21:53.884Z,12.39
2023-03-25T11:24:21.074Z,12.44
2023-03-25T11:26:49.116Z,12.54
2023-03-25T11:29:18.594Z,12.71
2023-03-25T11:31:54.974Z,12.87
2023-03-25T11:34:22.754Z,13.05
2023-03-25T11:37:04.576Z,13.18
2023-03-25T11:39:40.911Z,13.29
2023-03-25T11:42:14.244Z,13.45
2023-03-25T11:44:41.254Z,13.54
2023-03-25T11:47:09.472Z,13.50
2023-03-25T11:49:38.567Z,13.51
2023-03-25T11:52:07.666Z,13.59
2023-03-25T11:54:35.540Z,13.71
2023-03-25T11:57:04.261Z,13.78
2023-03-25T11:59:36.486Z,13.79
2023-03-25T12:02:23.658Z,13.79
2023-03-25T12:04:57.803Z,13.59
2023-03-25T12:07:24.592Z,13.58
2023-03-25T12:09:55.778Z,13.58
2023-03-25T12:12:33.194Z,13.59
2023-03-25T12:14:59.625Z,13.56
2023-03-25T12:17:29.096Z,13.61
2023-03-25T12:20:21.467Z,13.73
2023-03-25T12:22:53.924Z,13.86
2023-03-25T12:25:35.569Z,13.95
2023-03-25T12:28:01.990Z,14.02
2023-03-25T12:30:28.417Z,14.14
2023-03-25T12:32:54.987Z,14.17
2023-03-25T12:35:24.291Z,14.29
2023-03-25T12:37:57.081Z,14.37
2023-03-25T12:40:35.528Z,14.46
2023-03-25T12:43:05.106Z,14.58
2023-03-25T12:45:50.480Z,14.60
2023-03-25T12:48:38.142Z,14.61
2023-03-25T12:51:11.012Z,14.47
2023-03-25T12:53:40.688Z,14.45
2023-03-25T12:56:17.749Z,14.51
2023-03-25T12:58:50.353Z,14.50
2023-03-25T13:01:37.681Z,14.47
2023-03-25T13:04:22.225Z,14.48
2023-03-25T13:06:48.693Z,14.54
2023-03-25T13:09:18.564Z,14.49
2023-03-25T13:11:51.159Z,14.46
2023-03-25T13:14:24.038Z,14.47
2023-03-25T13:16:53.168Z,14.50
2023-03-25T13:19:22.876Z,14.47
2023-03-25T13:21:54.191Z,14.42
2023-03-25T13:24:24.278Z,14.43
2023-03-25T13:26:53.106Z,14.37
2023-03-25T13:29:29.073Z,14.27
2023-03-25T13:31:57.598Z,14.32
2023-03-25T13:34:30.107Z,14.34
2023-03-25T13:36:56.534Z,14.31
2023-03-25T13:39:25.480Z,14.23
2023-03-25T13:42:01.028Z,13.96
2023-03-25T13:44:32.241Z,13.99
2023-03-25T13:47:22.860Z,13.92
2023-03-25T13:49:52.169Z,14.01
2023-03-25T13:52:18.839Z,14.08
2023-03-25T13:54:52.384Z,14.01
2023-03-25T13:57:27.829Z,14.01
2023-03-25T14:00:14.582Z,13.94
2023-03-25T14:02:49.720Z,13.78
2023-03-25T14:05:34.740Z,13.77
2023-03-25T14:08:04.161Z,13.80
2023-03-25T14:10:47.631Z,13.68
2023-03-25T14:13:16.738Z,13.37
2023-03-25T14:16:04.086Z,13.41
2023-03-25T14:18:32.219Z,13.48
2023-03-25T14:21:13.207Z,13.54
2023-03-25T14:23:40.786Z,13.68
2023-03-25T14:26:10.133Z,13.77
2023-03-25T14:28:38.939Z,13.85
2023-03-25T14:31:10.312Z,13.86
2023-03-25T14:33:55.577Z,13.78
2023-03-25T14:36:29.094Z,13.71
2023-03-25T14:38:56.512Z,13.70
2023-03-25T14:42:01.922Z,13.79
2023-03-25T14:44:33.015Z,13.82
2023-03-25T14:47:22.277Z,13.83
2023-03-25T14:49:50.623Z,13.68
2023-03-25T14:52:18.992Z,13.66
2023-03-25T14:54:49.759Z,13.68
2023-03-25T14:57:22.197Z,13.59
2023-03-25T14:59:50.186Z,13.44
2023-03-25T15:02:20.090Z,13.47
2023-03-25T15:04:52.386Z,13.34
2023-03-25T15:07:37.459Z,13.15
2023-03-25T15:10:05.944Z,13.11
2023-03-25T15:12:32.728Z,13.11
2023-03-25T15:15:25.118Z,12.87
2023-03-25T15:17:51.674Z,12.82
2023-03-25T15:20:24.216Z,12.63
2023-03-25T15:23:11.326Z,12.53
2023-03-25T15:25:37.769Z,12.59
2023-03-25T15:28:11.197Z,12.65
2023-03-25T15:30:37.819Z,12.68
2023-03-25T15:33:36.853Z,12.72
2023-03-25T15:36:10.895Z,12.67
2023-03-25T15:38:43.220Z,12.73
2023-03-25T15:41:13.101Z,12.69
2023-03-25T15:44:00.447Z,12.58
2023-03-25T15:46:27.780Z,12.39
2023-03-25T15:48:57.262Z,12.38
2023-03-25T15:51:42.993Z,12.37
2023-03-25T15:54:12.452Z,12.35
2023-03-25T15:56:41.887Z,12.27
2023-03-25T15:59:18.664Z,12.27
2023-03-25T16:01:48.447Z,12.30
2023-03-25T16:04:14.857Z,12.21
2023-03-25T16:06:43.210Z,12.15
2023-03-25T16:09:19.291Z,12.20
2023-03-25T16:11:46.769Z,12.17
2023-03-25T16:14:14.729Z,12.13
2023-03-25T16:17:07.585Z,12.02
2023-03-25T16:19:45.288Z,11.92
2023-03-25T16:22:25.479Z,11.92
2023-03-25T16:24:52.790Z,11.88
2023-03-25T16:27:33.969Z,11.86
2023-03-25T16:30:00.695Z,11.79
2023-03-25T16:32:34.512Z,11.81
2023-03-25T16:35:01.588Z,11.86
2023-03-25T16:37:28.362Z,11.80
2023-03-25T16:39:56.207Z,11.75
2023-03-25T16:42:22.614Z,11.76
2023-03-25T16:44:49.134Z,11.76
2023-03-25T16:47:16.188Z,11.74
2023-03-25T16:49:46.187Z,11.73
2023-03-25T16:52:19.580Z,11.70
2023-03-25T16:54:47.132Z,11.66
2023-03-25T16:57:18.858Z,11.61
2023-03-25T16:59:47.649Z,11.49
2023-03-25T17:02:25.501Z,11.50
2023-03-25T17:04:55.913Z,11.49
2023-03-25T17:07:26.750Z,11.45
2023-03-25T17:09:54.888Z,11.45
2023-03-25T17:12:22.013Z,11.36
2023-03-25T17:14:50.328Z,11.31
2023-03-25T17:17:23.031Z,11.22
2023-03-25T17:19:51.205Z,11.07
2023-03-25T17:22:20.864Z,11.12
2023-03-25T17:24:55.298Z,11.14
2023-03-25T17:27:26.537Z,11.13
2023-03-25T17:29:59.609Z,11.06
2023-03-25T17:32:26.635Z,11.11
2023-03-25T17:34:57.305Z,11.13
2023-03-25T17:37:25.233Z,11.18
2023-03-25T17:39:51.924Z,11.13
2023-03-25T17:42:23.821Z,11.02
2023-03-25T17:44:50.793Z,10.92
2023-03-25T17:47:18.183Z,10.95
2023-03-25T17:49:44.659Z,10.93
2023-03-25T17:52:11.332Z,10.88
2023-03-25T17:54:37.816Z,10.78
2023-03-25T17:57:06.740Z,10.61
2023-03-25T17:59:33.379Z,10.57
2023-03-25T18:01:59.889Z,10.52
2023-03-25T18:04:26.643Z,10.42
2023-03-25T18:06:53.230Z,10.38
2023-03-25T18:09:22.092Z,10.37
2023-03-25T18:11:49.579Z,10.33
2023-03-25T18:14:16.495Z,10.28
2023-03-25T18:16:43.087Z,10.17
2023-03-25T18:19:39.176Z,10.17
2023-03-25T18:22:19.234Z,10.20
2023-03-25T18:24:47.035Z,10.20
2023-03-25T18:27:14.285Z,10.22
2023-03-25T18:29:40.861Z,10.16
2023-03-25T18:32:07.515Z,9.96
2023-03-25T18:34:34.578Z,9.94
2023-03-25T18:37:01.115Z,9.92
2023-03-25T18:39:27.834Z,9.88
2023-03-25T18:41:54.310Z,9.95
2023-03-25T18:44:21.301Z,10.01
2023-03-25T18:46:47.889Z,10.08
2023-03-25T18:49:16.137Z,10.11
2023-03-25T18:51:42.886Z,10.12
2023-03-25T18:54:09.608Z,10.15
2023-03-25T18:56:36.210Z,10.16
2023-03-25T18:59:05.957Z,10.16
2023-03-25T19:01:32.694Z,10.22
2023-03-25T19:04:02.805Z,10.17
2023-03-25T19:06:30.055Z,10.20
2023-03-25T19:08:57.392Z,10.12
2023-03-25T19:11:24.233Z,10.20
2023-03-25T19:13:51.211Z,10.17
2023-03-25T19:16:17.865Z,10.06
2023-03-25T19:18:44.411Z,10.07
2023-03-25T19:21:14.388Z,10.08
2023-03-25T19:23:41.837Z,10.07
2023-03-25T19:26:08.621Z,10.05
2023-03-25T19:28:35.490Z,10.11
2023-03-25T19:31:02.250Z,10.08
2023-03-25T19:33:31.203Z,10.04
2023-03-25T19:35:59.838Z,9.96
2023-03-25T19:38:26.565Z,9.94
2023-03-25T19:41:04.615Z,9.93
2023-03-25T19:43:31.396Z,9.94
2023-03-25T19:45:58.225Z,9.84
2023-03-25T19:48:24.910Z,9.82
2023-03-25T19:50:53.981Z,9.66
2023-03-25T19:53:21.286Z,9.66
2023-03-25T19:55:47.739Z,9.67
2023-03-25T19:58:14.262Z,9.63
2023-03-25T20:00:40.725Z,9.60
2023-03-25T20:03:07.785Z,9.56
2023-03-25T20:05:35.988Z,9.47
2023-03-25T20:08:02.825Z,9.42
2023-03-25T20:10:30.437Z,9.44
2023-03-25T20:12:57.420Z,9.41
2023-03-25T20:15:25.050Z,9.29
2023-03-25T20:17:53.146Z,9.26
2023-03-25T20:20:20.454Z,9.31
2023-03-25T20:22:48.409Z,9.27
2023-03-25T20:25:15.484Z,9.22
2023-03-25T20:27:42.057Z,9.14
2023-03-25T20:30:10.132Z,9.07
2023-03-25T20:32:41.372Z,9.02
2023-03-25T20:35:10.355Z,9.01
2023-03-25T20:37:38.670Z,8.92
2023-03-25T20:40:06.808Z,8.74
2023-03-25T20:42:33.258Z,8.68
2023-03-25T20:44:59.684Z,8.65
2023-03-25T20:47:26.283Z,8.57
2023-03-25T20:49:53.328Z,8.46
2023-03-25T20:52:20.070Z,8.44
2023-03-25T20:54:48.046Z,8.39
2023-03-25T20:57:14.532Z,8.38
2023-03-25T20:59:41.469Z,8.41
2023-03-25T21:02:09.630Z,8.41
2023-03-25T21:04:36.842Z,8.31
2023-03-25T21:07:03.396Z,8.23
2023-03-25T21:09:29.826Z,8.21
2023-03-25T21:11:56.563Z,7.98
2023-03-25T21:14:23.044Z,7.83
2023-03-25T21:16:49.601Z,7.78
2023-03-25T21:19:16.651Z,7.85
2023-03-25T21:21:43.073Z,7.91
2023-03-25T21:24:09.891Z,7.84
2023-03-25T21:26:36.343Z,7.83
2023-03-25T21:29:02.833Z,7.68
2023-03-25T21:31:29.558Z,7.51
2023-03-25T21:33:56.580Z,7.47
2023-03-25T21:36:28.094Z,7.52
2023-03-25T21:38:58.594Z,7.52
2023-03-25T21:41:25.549Z,7.50
2023-03-25T21:43:53.291Z,7.47
2023-03-25T21:46:24.300Z,7.43
2023-03-25T21:48:51.087Z,7.40
2023-03-25T21:51:17.876Z,7.35
2023-03-25T21:53:46.169Z,7.25
2023-03-25T21:56:14.766Z,7.19
2023-03-25T21:58:41.632Z,7.16
2023-03-25T22:01:13.370Z,7.11
2023-03-25T22:03:45.421Z,7.07
2023-03-25T22:06:13.659Z,7.03
2023-03-25T22:08:40.479Z,6.95
2023-03-25T22:11:11.579Z,6.89
2023-03-25T22:13:38.717Z,6.79
2023-03-25T22:16:05.709Z,6.75
2023-03-25T22:18:32.567Z,6.67
2023-03-25T22:21:17.883Z,6.62
2023-03-25T22:23:45.765Z,6.51
2023-03-25T22:26:13.186Z,6.48
2023-03-25T22:28:40.478Z,6.43
2023-03-25T22:31:20.294Z,6.41
2023-03-25T22:33:49.171Z,6.41
2023-03-25T22:36:16.554Z,6.28
2023-03-25T22:38:44.515Z,6.23
2023-03-25T22:41:12.280Z,6.27
2023-03-25T22:43:39.064Z,6.33
2023-03-25T22:46:06.214Z,6.38
2023-03-25T22:48:32.842Z,6.35
2023-03-25T22:50:59.719Z,6.37
2023-03-25T22:53:26.635Z,6.39
2023-03-25T22:55:55.156Z,6.39
2023-03-25T22:58:23.144Z,6.38
2023-03-25T23:00:50.260Z,6.36
2023-03-25T23:03:17.297Z,6.33
2023-03-25T23:05:54.439Z,6.26
2023-03-25T23:08:21.047Z,6.26
2023-03-25T23:10:47.591Z,6.24
2023-03-25T23:13:14.072Z,6.26
2023-03-25T23:15:40.521Z,6.28
2023-03-25T23:18:07.033Z,6.30
2023-03-25T23:20:34.965Z,6.33
2023-03-25T23:23:02.844Z,6.31
2023-03-25T23:25:29.289Z,6.13
2023-03-25T23:27:58.173Z,6.10
2023-03-25T23:30:24.725Z,6.06
2023-03-25T23:32:51.323Z,6.04
2023-03-25T23:35:18.957Z,6.01
2023-03-25T23:37:50.282Z,6.07
2023-03-25T23:40:17.223Z,6.06
2023-03-25T23:42:43.703Z,6.06
2023-03-25T23:45:10.878Z,6.11
2023-03-25T23:47:37.337Z,6.18
2023-03-25T23:50:04.091Z,6.13
2023-03-25T23:52:30.924Z,6.17
2023-03-25T23:54:57.372Z,6.16
2023-03-25T23:57:23.834Z,6.17
2023-03-25T23:59:50.274Z,6.17
